Terminal Aerodrome Forecast
Issued by NWS

Home | Current Version | Previous Version | Text Only | Print | Product List | Glossary On
Versions: 1 2 3 4 5 6 7 8 9 10 11 12 13 14 15 16 17
000
FTUS46 KLOX 251600 AAB
TAFLGB
TAF AMD
KLGB 251634Z 2517/2612 12009KT P6SM OVC014
     FM251730 19008KT P6SM SCT015 SCT150
     FM252300 29008KT P6SM SCT150
     FM260500 VRB03KT P6SM SCT150
     FM260800 VRB03KT P6SM OVC012=

USA.gov is the U.S. government's official web portal to all federal, state and local government web resources and services.